Time;durP1;ratioP1;P1;durP2;ratioP2;P2;SDS_P1;SDS_P2;PMS_P1;PMS_P2;Temp;Humidity;BMP_temperature;BMP_pressure;BME280_temperature;BME280_humidity;BME280_pressure;Samples;Min_cycle;Max_cycle;Signal;HPM_P1;HPM_P2
2023/01/07 00:01:34;;;;;;;13.77;8.80;;;;;;;9.98;100.00;101457.91;5068628;28;20063;-59
2023/01/07 00:04:05;;;;;;;12.00;8.27;;;;;;;10.00;100.00;101457.84;5071557;28;20052;-54
2023/01/07 00:06:37;;;;;;;12.52;8.63;;;;;;;9.98;100.00;101453.50;5071446;28;20052;-59
2023/01/07 00:09:07;;;;;;;11.88;8.23;;;;;;;10.01;100.00;101449.88;5071786;28;20037;-54
2023/01/07 00:11:38;;;;;;;11.48;7.90;;;;;;;9.93;100.00;101446.78;5071545;28;20118;-58
2023/01/07 00:14:08;;;;;;;12.27;8.65;;;;;;;9.91;100.00;101446.00;5074097;28;20056;-59
2023/01/07 00:16:37;;;;;;;13.57;8.57;;;;;;;9.95;100.00;101439.66;5075281;28;20044;-59
2023/01/07 00:19:06;;;;;;;13.40;8.77;;;;;;;9.93;100.00;101442.38;5075160;28;20448;-55
2023/01/07 00:21:36;;;;;;;14.27;8.55;;;;;;;9.90;100.00;101431.19;5075522;28;20037;-54
2023/01/07 00:24:06;;;;;;;13.30;8.90;;;;;;;9.89;100.00;101432.97;5075296;28;20045;-55
2023/01/07 00:26:36;;;;;;;12.98;9.00;;;;;;;9.90;100.00;101425.94;5075106;28;20048;-55
2023/01/07 00:29:06;;;;;;;12.38;8.55;;;;;;;9.82;100.00;101429.81;5075340;28;20106;-54
2023/01/07 00:31:35;;;;;;;13.00;8.85;;;;;;;9.79;100.00;101422.09;5074934;28;20048;-54
2023/01/07 00:34:08;;;;;;;13.75;9.15;;;;;;;9.77;100.00;101423.09;5075029;28;20041;-55
2023/01/07 00:36:43;;;;;;;12.25;8.20;;;;;;;9.80;100.00;101430.81;5074924;28;20050;-54
2023/01/07 00:39:15;;;;;;;11.68;8.13;;;;;;;9.73;100.00;101429.44;5072529;28;20052;-58
2023/01/07 00:42:53;;;;;;;13.95;8.65;;;;;;;9.71;100.00;101421.66;5070449;28;20423;-54
2023/01/07 00:44:35;;;;;;;13.80;8.75;;;;;;;9.68;100.00;101420.94;5074790;28;20041;-59
2023/01/07 00:47:04;;;;;;;13.57;9.55;;;;;;;9.60;100.00;101416.13;5074675;28;20051;-59
2023/01/07 00:49:32;;;;;;;13.70;9.07;;;;;;;9.58;100.00;101405.66;5074838;28;20123;-59
2023/01/07 00:52:01;;;;;;;14.52;9.15;;;;;;;9.55;100.00;101412.88;5074572;28;20044;-59
2023/01/07 00:54:30;;;;;;;13.98;9.02;;;;;;;9.54;100.00;101409.38;5074230;28;20064;-54
2023/01/07 00:56:58;;;;;;;12.13;8.82;;;;;;;9.61;100.00;101409.91;5072582;28;20056;-54
2023/01/07 00:59:26;;;;;;;12.80;8.43;;;;;;;9.59;100.00;101407.38;5070712;28;20404;-53
2023/01/07 01:01:54;;;;;;;13.93;8.20;;;;;;;9.60;100.00;101406.44;5070087;28;20044;-54
2023/01/07 01:04:23;;;;;;;14.18;8.27;;;;;;;9.55;100.00;101405.84;5074362;28;20127;-53
2023/01/07 01:06:51;;;;;;;15.40;8.10;;;;;;;9.58;100.00;101403.03;5074457;28;20106;-53
2023/01/07 01:09:21;;;;;;;12.85;8.65;;;;;;;9.56;100.00;101398.81;5071125;28;20454;-53
2023/01/07 01:11:49;;;;;;;11.57;7.93;;;;;;;9.57;100.00;101404.00;5071460;28;20056;-52
2023/01/07 01:14:17;;;;;;;12.43;7.70;;;;;;;9.58;100.00;101392.53;5072939;28;20067;-53
2023/01/07 01:16:45;;;;;;;14.50;7.53;;;;;;;9.58;100.00;101399.56;5070153;28;20105;-53
2023/01/07 01:19:16;;;;;;;13.63;8.48;;;;;;;9.55;100.00;101397.13;5070169;28;20480;-53
2023/01/07 01:21:45;;;;;;;13.30;7.85;;;;;;;9.53;100.00;101405.06;5072700;28;20052;-53
2023/01/07 01:24:13;;;;;;;11.27;7.70;;;;;;;9.58;100.00;101396.94;5070477;28;20041;-53
2023/01/07 01:26:43;;;;;;;14.52;7.50;;;;;;;9.62;100.00;101394.06;5070672;28;20086;-54
2023/01/07 01:29:11;;;;;;;13.05;7.40;;;;;;;9.62;100.00;101380.94;5073990;28;20388;-54
2023/01/07 01:31:39;;;;;;;12.50;7.95;;;;;;;9.58;100.00;101379.41;5073620;28;20055;-52
2023/01/07 01:34:07;;;;;;;12.95;7.75;;;;;;;9.56;100.00;101380.44;5073847;28;20516;-59
2023/01/07 01:36:37;;;;;;;12.40;7.88;;;;;;;9.57;100.00;101375.09;5070429;28;20082;-53
2023/01/07 01:39:05;;;;;;;10.85;7.32;;;;;;;9.61;100.00;101381.88;5071039;28;20045;-52
2023/01/07 01:41:34;;;;;;;11.45;7.55;;;;;;;9.63;100.00;101382.66;5073585;28;20056;-60
2023/01/07 01:44:44;;;;;;;11.90;7.65;;;;;;;9.62;100.00;101377.47;5073578;28;20048;-59
2023/01/07 01:47:19;;;;;;;13.93;7.43;;;;;;;9.61;100.00;101384.53;5066016;28;20060;-59
2023/01/07 01:49:54;;;;;;;13.88;6.45;;;;;;;9.60;100.00;101380.19;5069417;28;20519;-59
2023/01/07 01:52:27;;;;;;;13.02;6.78;;;;;;;9.62;100.00;101387.97;5071944;28;20098;-59
2023/01/07 01:55:00;;;;;;;10.18;6.07;;;;;;;9.63;100.00;101392.31;5073039;28;20044;-59
2023/01/07 01:57:31;;;;;;;11.55;6.45;;;;;;;9.61;100.00;101388.91;5073053;28;20084;-59
2023/01/07 02:00:01;;;;;;;11.30;6.80;;;;;;;9.59;100.00;101386.34;5073150;28;20402;-53
2023/01/07 02:02:33;;;;;;;12.05;6.82;;;;;;;9.57;100.00;101387.38;5072935;28;20056;-52
2023/01/07 02:05:02;;;;;;;;;;;;;;;9.54;100.00;101392.78;5073836;28;20059;-53
2023/01/07 02:07:30;;;;;;;9.98;6.22;;;;;;;9.54;100.00;101396.25;5073021;28;20018;-53
2023/01/07 02:10:00;;;;;;;9.23;5.75;;;;;;;9.47;100.00;101390.50;5073025;28;20056;-53
2023/01/07 02:12:43;;;;;;;9.85;6.13;;;;;;;9.49;100.00;101390.41;5073210;28;20052;-55
2023/01/07 02:15:15;;;;;;;;;;;;;;;9.46;100.00;101398.44;5072906;28;20554;-53
2023/01/07 02:18:00;;;;;;;9.52;5.90;;;;;;;9.50;100.00;101392.09;5072727;28;20387;-53
2023/01/07 02:20:46;;;;;;;10.60;5.72;;;;;;;9.47;100.00;101389.63;5072534;28;20044;-52
2023/01/07 02:24:03;;;;;;;9.98;5.97;;;;;;;9.46;100.00;101390.53;5072827;28;20044;-53
2023/01/07 02:26:56;;;;;;;8.80;5.43;;;;;;;9.46;100.00;101386.16;5072701;28;20087;-54
2023/01/07 02:29:54;;;;;;;;;;;;;;;9.42;100.00;101382.00;5073255;28;20044;-59
2023/01/07 02:32:36;;;;;;;9.32;5.70;;;;;;;9.44;100.00;101380.13;5030522;28;19921;-59
2023/01/07 02:35:15;;;;;;;10.73;6.37;;;;;;;9.43;100.00;101377.59;5067136;28;20052;-58
2023/01/07 02:37:56;;;;;;;10.80;6.00;;;;;;;9.41;100.00;101376.84;5071966;28;20394;-59
2023/01/07 02:40:30;;;;;;;9.88;6.30;;;;;;;9.42;100.00;101376.75;5072641;28;20048;-59
2023/01/07 02:43:13;;;;;;;12.88;6.47;;;;;;;9.44;100.00;101366.16;5069087;28;20560;-59
2023/01/07 02:45:49;;;;;;;11.32;7.35;;;;;;;9.40;100.00;101373.34;5069549;28;20049;-58
2023/01/07 02:48:21;;;;;;;11.73;7.82;;;;;;;9.42;100.00;101370.63;5070491;28;20074;-59
2023/01/07 02:50:49;;;;;;;13.88;7.43;;;;;;;9.43;100.00;101370.53;5068719;28;20047;-59
2023/01/07 02:53:20;;;;;;;10.00;7.05;;;;;;;9.43;100.00;101367.09;5071838;28;20044;-59
2023/01/07 02:56:02;;;;;;;10.77;6.22;;;;;;;9.43;100.00;101374.97;5072154;28;20049;-58
2023/01/07 02:58:56;;;;;;;10.20;6.03;;;;;;;9.41;100.00;101368.97;5072323;28;20044;-59
2023/01/07 03:01:27;;;;;;;;;;;;;;;9.41;100.00;101361.09;5072962;28;20110;-59
2023/01/07 03:04:13;;;;;;;9.35;5.97;;;;;;;9.42;100.00;101363.63;5071355;28;20345;-58
2023/01/07 03:06:57;;;;;;;9.88;5.65;;;;;;;9.44;100.00;101358.28;5067943;28;20614;-58
2023/01/07 03:09:32;;;;;;;10.93;5.82;;;;;;;9.45;100.00;101347.69;5070717;28;20045;-58
2023/01/07 03:12:08;;;;;;;10.32;5.65;;;;;;;9.44;100.00;101350.41;5072316;28;20058;-58
2023/01/07 03:14:40;;;;;;;9.50;5.63;;;;;;;9.48;100.00;101341.44;5071336;28;20056;-59
2023/01/07 03:17:13;;;;;;;12.07;6.15;;;;;;;9.46;100.00;101338.03;5067080;28;20098;-59
2023/01/07 03:19:47;;;;;;;10.38;5.80;;;;;;;9.46;100.00;101343.28;5070153;28;20049;-59
2023/01/07 03:22:19;;;;;;;9.52;5.72;;;;;;;9.48;100.00;101341.44;5072219;28;20098;-59
2023/01/07 03:24:51;;;;;;;12.35;5.53;;;;;;;9.52;100.00;101334.25;5072038;28;20056;-59
2023/01/07 03:27:22;;;;;;;10.00;5.65;;;;;;;9.53;100.00;101330.69;5070083;28;20430;-59
2023/01/07 03:29:53;;;;;;;10.43;5.97;;;;;;;9.47;100.00;101337.13;5067988;28;20036;-58
2023/01/07 03:32:26;;;;;;;11.25;5.00;;;;;;;9.50;100.00;101329.06;5069522;28;20041;-58
2023/01/07 03:34:56;;;;;;;8.02;4.78;;;;;;;9.52;100.00;101331.66;5071885;28;20127;-58
2023/01/07 03:37:26;;;;;;;7.97;4.88;;;;;;;9.49;100.00;101337.91;5071896;28;20532;-58
2023/01/07 03:39:55;;;;;;;9.25;4.90;;;;;;;9.50;100.00;101333.47;5071724;28;20047;-58
2023/01/07 03:42:38;;;;;;;8.73;4.93;;;;;;;9.49;100.00;101327.41;5071791;28;20047;-52
2023/01/07 03:45:11;;;;;;;9.18;5.22;;;;;;;9.46;100.00;101323.16;5071558;28;20045;-59
2023/01/07 03:47:48;;;;;;;10.65;5.60;;;;;;;9.46;100.00;101322.28;5071943;28;20068;-50
2023/01/07 03:50:19;;;;;;;8.93;5.13;;;;;;;9.46;100.00;101319.66;5075703;28;20578;-50
2023/01/07 03:52:48;;;;;;;9.73;5.07;;;;;;;9.43;100.00;101320.66;5073821;28;20075;-51
2023/01/07 03:55:17;;;;;;;8.88;4.90;;;;;;;9.45;100.00;101323.25;5072276;28;20549;-51
2023/01/07 03:57:45;;;;;;;10.75;5.00;;;;;;;9.44;100.00;101317.13;5074204;28;20044;-51
2023/01/07 04:00:15;;;;;;;8.63;4.50;;;;;;;9.44;100.00;101313.66;5075472;28;20094;-53
2023/01/07 04:02:43;;;;;;;9.27;5.10;;;;;;;9.45;100.00;101310.09;5075067;28;20037;-51
2023/01/07 04:05:12;;;;;;;7.90;4.68;;;;;;;9.41;100.00;101306.78;5075509;28;20041;-52
2023/01/07 04:07:41;;;;;;;7.60;4.63;;;;;;;9.39;100.00;101303.38;5074910;28;20071;-52
2023/01/07 04:10:10;;;;;;;9.38;4.85;;;;;;;9.34;100.00;101302.81;5075072;28;20045;-53
2023/01/07 04:12:38;;;;;;;7.82;4.25;;;;;;;9.30;100.00;101302.09;5075024;28;20131;-52
2023/01/07 04:15:07;;;;;;;8.95;4.82;;;;;;;9.28;100.00;101296.09;5075288;28;20052;-50
2023/01/07 04:17:35;;;;;;;11.85;5.05;;;;;;;9.22;100.00;101293.78;5075367;28;20119;-52
2023/01/07 04:20:06;;;;;;;8.35;4.68;;;;;;;9.18;100.00;101291.41;5073545;28;20471;-51
2023/01/07 04:22:37;;;;;;;9.05;5.18;;;;;;;9.22;100.00;101285.91;5071679;28;20045;-59
2023/01/07 04:25:07;;;;;;;9.82;4.85;;;;;;;9.19;100.00;101283.44;5074187;28;20052;-49
2023/01/07 04:27:36;;;;;;;9.82;4.72;;;;;;;9.22;100.00;101272.78;5074789;28;20070;-51
2023/01/07 04:30:08;;;;;;;7.88;4.63;;;;;;;9.19;100.00;101272.97;5075088;28;20052;-51
2023/01/07 04:32:36;;;;;;;9.55;4.53;;;;;;;9.10;100.00;101270.81;5074534;28;20041;-50
2023/01/07 04:35:04;;;;;;;11.20;5.38;;;;;;;9.13;100.00;101268.00;5074677;28;20059;-58
2023/01/07 04:37:33;;;;;;;7.90;5.00;;;;;;;9.10;100.00;101262.94;5074476;28;20045;-59
2023/01/07 04:40:01;;;;;;;8.73;4.72;;;;;;;9.08;100.00;101259.53;5074288;28;20036;-59
2023/01/07 04:42:30;;;;;;;8.23;4.60;;;;;;;9.08;100.00;101252.53;5074905;28;20407;-59
2023/01/07 04:44:58;;;;;;;8.57;4.85;;;;;;;9.07;100.00;101257.84;5073479;28;20079;-59
2023/01/07 04:47:26;;;;;;;11.27;4.72;;;;;;;8.99;100.00;101249.53;5071884;28;20048;-58
2023/01/07 04:49:55;;;;;;;9.70;4.55;;;;;;;8.95;100.00;101248.84;5071294;28;20102;-58
2023/01/07 04:52:23;;;;;;;10.05;4.85;;;;;;;8.91;100.00;101247.31;5074327;28;20060;-59
2023/01/07 04:54:51;;;;;;;9.07;4.75;;;;;;;8.90;100.00;101242.97;5074708;28;20053;-58
2023/01/07 04:57:19;;;;;;;8.13;4.88;;;;;;;8.87;100.00;101237.91;5074339;28;20419;-59
2023/01/07 04:59:48;;;;;;;7.88;4.43;;;;;;;8.93;100.00;101235.81;5070327;28;20560;-59
2023/01/07 05:02:16;;;;;;;8.45;4.28;;;;;;;8.91;100.00;101228.94;5069620;28;20048;-58
2023/01/07 05:04:45;;;;;;;9.45;4.50;;;;;;;8.89;100.00;101229.03;5073422;28;20498;-58
2023/01/07 05:07:14;;;;;;;9.00;5.05;;;;;;;8.95;100.00;101233.94;5074597;28;20055;-58
2023/01/07 05:09:42;;;;;;;8.88;4.13;;;;;;;8.89;100.00;101231.66;5073082;28;20044;-58
2023/01/07 05:12:10;;;;;;;7.93;4.18;;;;;;;8.87;100.00;101228.25;5074246;28;20055;-58
2023/01/07 05:14:38;;;;;;;7.70;4.38;;;;;;;8.92;100.00;101228.84;5072926;28;20143;-59
2023/01/07 05:17:07;;;;;;;7.88;4.07;;;;;;;8.94;100.00;101232.25;5074261;28;20446;-58
2023/01/07 05:19:35;;;;;;;8.35;4.20;;;;;;;8.95;100.00;101227.84;5073930;28;20424;-58
2023/01/07 05:22:04;;;;;;;8.70;4.35;;;;;;;8.99;100.00;101223.31;5074019;28;20048;-58
2023/01/07 05:24:32;;;;;;;8.90;3.97;;;;;;;8.93;100.00;101220.06;5073928;28;20113;-59
2023/01/07 05:27:00;;;;;;;9.07;4.50;;;;;;;8.96;100.00;101216.44;5074097;28;20041;-53
2023/01/07 05:29:28;;;;;;;9.82;4.45;;;;;;;8.94;100.00;101221.78;5074003;28;20048;-53
2023/01/07 05:31:56;;;;;;;9.77;4.60;;;;;;;9.04;100.00;101216.00;5073791;28;20049;-53
2023/01/07 05:34:26;;;;;;;8.73;4.70;;;;;;;8.96;100.00;101214.66;5073832;28;20109;-53
2023/01/07 05:36:54;;;;;;;9.18;4.00;;;;;;;8.95;100.00;101212.94;5073320;28;20507;-50
2023/01/07 05:39:22;;;;;;;11.15;4.18;;;;;;;8.95;100.00;101212.94;5073468;28;20045;-59
2023/01/07 05:41:50;;;;;;;8.43;4.35;;;;;;;8.96;100.00;101214.66;5070213;28;20045;-58
2023/01/07 05:44:18;;;;;;;7.65;4.30;;;;;;;8.99;100.00;101210.19;5070689;28;20072;-59
2023/01/07 05:46:46;;;;;;;6.88;4.07;;;;;;;9.02;100.00;101210.00;5073017;28;20075;-58
2023/01/07 05:49:15;;;;;;;7.95;4.00;;;;;;;9.08;100.00;101205.28;5073797;28;20376;-58
2023/01/07 05:51:44;;;;;;;8.15;4.03;;;;;;;9.07;100.00;101210.63;5073511;28;20049;-58
2023/01/07 05:54:12;;;;;;;8.38;4.28;;;;;;;9.07;100.00;101210.63;5073669;28;20048;-60
2023/01/07 05:56:40;;;;;;;9.07;4.05;;;;;;;9.08;100.00;101200.03;5073001;28;20450;-58
2023/01/07 05:59:08;;;;;;;9.18;4.18;;;;;;;9.11;100.00;101199.88;5073171;28;20441;-58
2023/01/07 06:01:37;;;;;;;7.13;4.00;;;;;;;9.12;100.00;101198.94;5067657;28;20098;-58
2023/01/07 06:04:05;;;;;;;7.63;4.00;;;;;;;9.14;100.00;101204.94;5070697;28;20078;-59
2023/01/07 06:06:33;;;;;;;10.82;4.30;;;;;;;9.14;100.00;101204.13;5073330;28;20533;-59
2023/01/07 06:09:03;;;;;;;8.57;4.40;;;;;;;9.17;100.00;101203.94;5073402;28;20045;-58
2023/01/07 06:11:31;;;;;;;8.18;4.10;;;;;;;9.17;100.00;101203.09;5071622;28;20043;-58
2023/01/07 06:13:59;;;;;;;7.55;3.72;;;;;;;9.15;100.00;101197.94;5073262;28;20048;-58
2023/01/07 06:16:27;;;;;;;7.28;3.33;;;;;;;9.18;100.00;101195.16;5073206;28;20048;-51
2023/01/07 06:18:55;;;;;;;6.88;3.78;;;;;;;9.14;100.00;101185.75;5071037;28;20062;-50
2023/01/07 06:21:23;;;;;;;7.53;3.83;;;;;;;9.15;100.00;101190.06;5068958;28;20128;-59
2023/01/07 06:23:52;;;;;;;7.78;3.50;;;;;;;9.18;100.00;101178.56;5071411;28;20080;-59
2023/01/07 06:26:21;;;;;;;7.68;3.50;;;;;;;9.16;100.00;101183.88;5072967;28;20075;-59
2023/01/07 06:28:51;;;;;;;7.43;3.40;;;;;;;9.18;100.00;101175.94;5072864;28;20503;-59
2023/01/07 06:31:19;;;;;;;7.18;3.50;;;;;;;9.16;100.00;101170.75;5069036;28;20064;-58
2023/01/07 06:33:47;;;;;;;7.47;3.17;;;;;;;9.18;100.00;101171.53;5068387;28;20063;-59
2023/01/07 06:36:15;;;;;;;5.82;3.20;;;;;;;9.20;100.00;101167.03;5072086;28;20430;-58
2023/01/07 06:38:43;;;;;;;8.80;3.17;;;;;;;9.22;100.00;101167.81;5072941;28;20068;-58
2023/01/07 06:41:12;;;;;;;9.90;3.28;;;;;;;9.22;100.00;101159.94;5072770;28;20071;-58
2023/01/07 06:43:41;;;;;;;6.15;3.20;;;;;;;9.23;100.00;101156.38;5072592;28;20056;-58
2023/01/07 06:46:09;;;;;;;4.80;2.92;;;;;;;9.24;100.00;101158.09;5072662;28;20052;-58
2023/01/07 06:48:38;;;;;;;6.25;2.67;;;;;;;9.25;100.00;101151.88;5072508;28;20127;-59
2023/01/07 06:51:06;;;;;;;8.65;3.20;;;;;;;9.27;100.00;101150.03;5072495;28;20072;-59
2023/01/07 06:53:34;;;;;;;6.75;2.90;;;;;;;9.30;100.00;101151.66;5072864;28;20454;-59
2023/01/07 06:56:02;;;;;;;6.28;2.83;;;;;;;9.28;100.00;101145.63;5071086;28;20055;-59
2023/01/07 06:58:33;;;;;;;6.05;2.78;;;;;;;9.31;100.00;101150.69;5072349;28;20080;-58
2023/01/07 07:01:05;;;;;;;4.93;2.70;;;;;;;9.31;100.00;101137.56;5072452;28;20101;-59
2023/01/07 07:03:33;;;;;;;4.30;2.20;;;;;;;9.37;100.00;101136.41;5072268;28;20102;-59
2023/01/07 07:06:02;;;;;;;6.22;2.42;;;;;;;9.35;100.00;101135.63;5072270;28;20434;-59
2023/01/07 07:08:30;;;;;;;5.20;2.42;;;;;;;9.32;100.00;101135.81;5072411;28;20056;-59
2023/01/07 07:10:58;;;;;;;5.78;2.45;;;;;;;9.34;100.00;101129.56;5072274;28;20098;-59
2023/01/07 07:13:26;;;;;;;6.07;2.42;;;;;;;9.33;100.00;101135.72;5072250;28;20052;-59
2023/01/07 07:15:54;;;;;;;5.03;2.28;;;;;;;9.33;100.00;101132.28;5072486;28;20438;-59
2023/01/07 07:18:25;;;;;;;5.70;2.20;;;;;;;9.34;100.00;101133.94;5072379;28;20469;-59
2023/01/07 07:20:54;;;;;;;7.03;2.25;;;;;;;9.36;100.00;101132.94;5071187;28;20567;-52
2023/01/07 07:23:22;;;;;;;5.25;2.45;;;;;;;9.34;100.00;101128.69;5070144;28;20040;-52
2023/01/07 07:25:50;;;;;;;6.35;2.33;;;;;;;9.35;100.00;101128.59;5074265;28;20118;-53
2023/01/07 07:28:18;;;;;;;6.28;2.22;;;;;;;9.41;100.00;101137.94;5076172;28;20043;-53
2023/01/07 07:30:46;;;;;;;4.55;2.30;;;;;;;9.36;100.00;101121.59;5076262;28;20503;-52
2023/01/07 07:33:17;;;;;;;4.68;2.25;;;;;;;9.35;100.00;101118.09;5076279;28;20083;-53
2023/01/07 07:35:48;;;;;;;7.03;2.33;;;;;;;9.36;100.00;101116.34;5076168;28;20056;-52
2023/01/07 07:38:17;;;;;;;4.57;2.10;;;;;;;9.36;100.00;101113.72;5076550;28;20398;-52
2023/01/07 07:40:46;;;;;;;4.38;2.00;;;;;;;9.40;100.00;101110.00;5075451;28;20053;-52
2023/01/07 07:43:14;;;;;;;3.63;1.75;;;;;;;9.40;100.00;101105.56;5074402;28;20040;-59
2023/01/07 07:45:43;;;;;;;3.35;1.80;;;;;;;9.38;100.00;101117.09;5075849;28;20109;-59
2023/01/07 07:48:13;;;;;;;3.53;1.83;;;;;;;9.36;100.00;101111.09;5075825;28;20051;-59
2023/01/07 07:50:42;;;;;;;4.32;1.90;;;;;;;9.41;100.00;101119.56;5075858;28;20047;-59
2023/01/07 07:53:12;;;;;;;4.25;1.90;;;;;;;9.40;100.00;101118.69;5075974;28;20041;-59
2023/01/07 07:55:41;;;;;;;5.43;1.90;;;;;;;9.41;100.00;101109.91;5075731;28;20049;-59
2023/01/07 07:58:09;;;;;;;4.68;1.73;;;;;;;9.38;100.00;101110.06;5075557;28;20048;-59
2023/01/07 08:00:37;;;;;;;4.75;1.90;;;;;;;9.38;100.00;101110.06;5074359;28;20056;-59
2023/01/07 08:03:05;;;;;;;5.60;1.77;;;;;;;9.40;100.00;101107.38;5070734;28;20037;-59
2023/01/07 08:05:33;;;;;;;3.85;1.60;;;;;;;9.41;100.00;101103.81;5073568;28;20399;-59
2023/01/07 08:08:02;;;;;;;4.60;2.00;;;;;;;9.50;100.00;101108.53;5075307;28;20564;-59
2023/01/07 08:10:31;;;;;;;4.35;1.60;;;;;;;9.45;100.00;101110.59;5075384;28;20081;-59
2023/01/07 08:12:59;;;;;;;4.50;2.05;;;;;;;9.44;100.00;101108.88;5075548;28;20384;-59
2023/01/07 08:15:27;;;;;;;5.40;2.00;;;;;;;9.47;100.00;101106.06;5075336;28;20556;-59
2023/01/07 08:17:59;;;;;;;3.85;1.88;;;;;;;9.45;100.00;101100.09;5072880;28;20052;-59
2023/01/07 08:20:28;;;;;;;4.85;2.35;;;;;;;9.42;100.00;101095.84;5071674;28;20492;-59
2023/01/07 08:22:59;;;;;;;5.30;2.08;;;;;;;9.44;100.00;101106.25;5074677;28;20078;-59
2023/01/07 08:25:27;;;;;;;5.65;2.40;;;;;;;9.51;100.00;101097.09;5074899;28;20053;-60
2023/01/07 08:27:57;;;;;;;6.55;2.42;;;;;;;9.47;100.00;101098.19;5074666;28;20144;-59
2023/01/07 08:30:25;;;;;;;6.68;2.53;;;;;;;9.40;100.00;101095.06;5070945;28;20056;-59
2023/01/07 08:32:54;;;;;;;6.05;2.47;;;;;;;9.48;100.00;101099.91;5070190;28;20071;-59
2023/01/07 08:35:22;;;;;;;5.68;2.20;;;;;;;9.47;100.00;101092.94;5074723;28;20500;-59
2023/01/07 08:37:50;;;;;;;6.03;2.50;;;;;;;9.46;100.00;101097.38;5075036;28;20044;-59
2023/01/07 08:40:19;;;;;;;9.35;2.80;;;;;;;9.45;100.00;101094.84;5073779;28;20075;-59
2023/01/07 08:42:47;;;;;;;4.55;2.10;;;;;;;9.47;100.00;101098.19;5070993;28;20537;-60
2023/01/07 08:45:17;;;;;;;3.97;2.17;;;;;;;9.46;100.00;101086.88;5073420;28;20513;-59
2023/01/07 08:47:47;;;;;;;6.40;2.85;;;;;;;9.48;100.00;101082.34;5074664;28;20445;-59
2023/01/07 08:50:15;;;;;;;6.35;3.10;;;;;;;9.46;100.00;101092.13;5074291;28;20500;-59
2023/01/07 08:52:45;;;;;;;6.90;2.63;;;;;;;9.50;100.00;101082.25;5073945;28;20044;-59
2023/01/07 08:55:14;;;;;;;6.63;2.70;;;;;;;9.55;100.00;101077.59;5074504;28;20557;-59
2023/01/07 08:57:42;;;;;;;5.47;2.38;;;;;;;9.51;100.00;101077.88;5074498;28;20056;-59
2023/01/07 09:00:12;;;;;;;7.22;2.20;;;;;;;9.55;100.00;101071.53;5074385;28;20083;-60
2023/01/07 09:02:44;;;;;;;3.20;1.90;;;;;;;9.53;100.00;101071.63;5074233;28;20054;-59
2023/01/07 09:05:12;;;;;;;4.97;1.90;;;;;;;9.53;100.00;101066.38;5073753;28;20391;-58
2023/01/07 09:07:41;;;;;;;3.20;1.88;;;;;;;9.53;100.00;101063.75;5072162;28;20123;-61
2023/01/07 09:10:10;;;;;;;3.78;1.75;;;;;;;9.55;100.00;101067.09;5071090;28;20048;-58
2023/01/07 09:12:38;;;;;;;5.80;2.25;;;;;;;9.57;100.00;101062.63;5072918;28;20102;-59
2023/01/07 09:15:08;;;;;;;9.30;2.20;;;;;;;9.61;100.00;101060.66;5074252;28;20060;-59
2023/01/07 09:17:36;;;;;;;5.53;2.00;;;;;;;9.62;100.00;101059.72;5074232;28;20044;-59
2023/01/07 09:20:08;;;;;;;4.90;2.05;;;;;;;9.63;100.00;101059.63;5074064;28;20067;-59
2023/01/07 09:22:36;;;;;;;4.05;2.10;;;;;;;9.63;100.00;101054.38;5073353;28;20048;-59
2023/01/07 09:25:06;;;;;;;3.85;1.80;;;;;;;9.62;100.00;101050.06;5071027;28;20139;-59
2023/01/07 09:27:34;;;;;;;5.13;2.15;;;;;;;9.64;100.00;101050.00;5070483;28;20052;-60
2023/01/07 09:30:06;;;;;;;4.00;1.95;;;;;;;9.66;100.00;101050.72;5074110;28;20059;-53
2023/01/07 09:32:35;;;;;;;4.72;2.17;;;;;;;9.66;100.00;101049.91;5073995;28;20063;-51
2023/01/07 09:35:03;;;;;;;2.83;1.70;;;;;;;9.67;100.00;101044.56;5074175;28;20092;-50
2023/01/07 09:37:32;;;;;;;5.03;2.10;;;;;;;9.68;100.00;101043.63;5071253;28;20040;-52
2023/01/07 09:40:01;;;;;;;4.18;1.67;;;;;;;9.67;100.00;101052.44;5070231;28;20059;-52
2023/01/07 09:42:39;;;;;;;3.17;1.60;;;;;;;9.69;100.00;101049.72;5073650;28;20097;-51
2023/01/07 09:45:19;;;;;;;2.75;1.73;;;;;;;9.70;100.00;101048.78;5073349;28;20106;-51
2023/01/07 09:47:50;;;;;;;2.13;1.42;;;;;;;9.72;100.00;101045.13;5072517;28;20052;-51
2023/01/07 09:50:27;;;;;;;3.53;1.60;;;;;;;9.76;100.00;101035.28;5072801;28;20063;-49
2023/01/07 09:53:02;;;;;;;3.50;1.58;;;;;;;9.76;100.00;101035.28;5073471;28;20048;-52
2023/01/07 09:55:33;;;;;;;3.50;1.70;;;;;;;9.81;100.00;101034.06;5073384;28;20053;-52
2023/01/07 09:58:02;;;;;;;2.53;1.42;;;;;;;9.82;100.00;101025.25;5073264;28;20153;-59
2023/01/07 10:00:32;;;;;;;4.50;1.67;;;;;;;9.86;100.00;101025.94;5069835;28;20529;-59
2023/01/07 10:03:14;;;;;;;3.65;1.50;;;;;;;9.90;100.00;101031.88;5067537;28;20055;-59
2023/01/07 10:05:56;;;;;;;5.07;1.55;;;;;;;9.93;100.00;101023.78;5073316;28;20045;-59
2023/01/07 10:08:36;;;;;;;4.22;1.40;;;;;;;9.93;100.00;101022.00;5073358;28;20045;-59
2023/01/07 10:11:17;;;;;;;2.00;1.33;;;;;;;9.98;100.00;101019.13;5073232;28;20051;-59
2023/01/07 10:14:03;;;;;;;3.13;1.40;;;;;;;9.99;100.00;101018.16;5073146;28;20047;-59
2023/01/07 10:16:40;;;;;;;2.53;1.50;;;;;;;10.03;100.00;101010.94;5073021;28;20487;-60
2023/01/07 10:19:20;;;;;;;2.70;1.45;;;;;;;10.14;100.00;101012.00;5070226;28;20401;-59
2023/01/07 10:21:53;;;;;;;3.22;1.52;;;;;;;10.13;100.00;100998.94;5067747;28;20058;-59
2023/01/07 10:24:26;;;;;;;3.50;1.55;;;;;;;10.21;100.00;101001.09;5072932;28;20052;-59
2023/01/07 10:26:57;;;;;;;2.08;1.25;;;;;;;10.14;100.00;100984.84;5072938;28;20098;-59
2023/01/07 10:29:32;;;;;;;5.22;1.50;;;;;;;10.16;100.00;100983.00;5072927;28;20412;-59
2023/01/07 10:32:07;;;;;;;4.47;2.00;;;;;;;10.22;100.00;100977.34;5072822;28;20052;-60
2023/01/07 10:34:43;;;;;;;2.63;1.48;;;;;;;10.24;100.00;100967.59;5071843;28;20048;-59
2023/01/07 10:37:20;;;;;;;4.13;1.67;;;;;;;10.27;100.00;100972.66;5069464;28;20048;-60
2023/01/07 10:39:56;;;;;;;4.47;1.98;;;;;;;10.25;100.00;100964.03;5070724;28;20045;-60
2023/01/07 10:42:32;;;;;;;4.38;1.60;;;;;;;10.30;100.00;100954.06;5072514;28;20048;-60
2023/01/07 10:45:29;;;;;;;3.17;1.60;;;;;;;10.33;100.00;100947.75;5072082;28;20090;-60
2023/01/07 10:48:22;;;;;;;3.92;1.58;;;;;;;10.39;100.00;100942.16;5071154;28;20070;-59
2023/01/07 10:50:59;;;;;;;2.78;1.45;;;;;;;10.53;100.00;100933.41;5072445;28;20056;-59
2023/01/07 10:53:39;;;;;;;3.40;1.50;;;;;;;10.65;100.00;100924.72;5072577;28;20106;-59
2023/01/07 10:56:21;;;;;;;2.35;1.10;;;;;;;10.74;100.00;100914.56;5072368;28;20063;-59
2023/01/07 10:58:51;;;;;;;3.72;1.40;;;;;;;10.68;100.00;100910.53;5071593;28;20438;-59
2023/01/07 11:01:24;;;;;;;2.75;1.30;;;;;;;10.81;100.00;100902.69;5071963;28;20373;-59
2023/01/07 11:03:55;;;;;;;3.88;1.48;;;;;;;10.78;100.00;100903.75;5068257;28;20052;-59
2023/01/07 11:06:34;;;;;;;3.03;1.25;;;;;;;10.85;100.00;100895.44;5070846;28;20062;-59
2023/01/07 11:09:07;;;;;;;3.30;1.50;;;;;;;10.89;100.00;100884.59;5072560;28;20040;-60
2023/01/07 11:11:38;;;;;;;2.83;1.20;;;;;;;10.84;100.00;100878.81;5068353;28;20054;-59
2023/01/07 11:14:12;;;;;;;2.28;1.35;;;;;;;10.81;100.00;100886.91;5068822;28;20041;-60
2023/01/07 11:16:45;;;;;;;3.00;1.30;;;;;;;10.87;100.00;100872.53;5069784;28;20091;-60
2023/01/07 11:19:14;;;;;;;3.05;1.20;;;;;;;10.91;100.00;100877.47;5068825;28;20048;-59
2023/01/07 11:21:44;;;;;;;2.40;1.35;;;;;;;10.90;100.00;100878.41;5070714;28;20131;-60
2023/01/07 11:24:30;;;;;;;1.85;1.25;;;;;;;10.93;100.00;100875.56;5072270;28;20040;-60
2023/01/07 11:27:06;;;;;;;2.15;0.95;;;;;;;11.01;100.00;100867.16;5072170;28;20056;-60
2023/01/07 11:29:39;;;;;;;1.92;1.08;;;;;;;11.07;100.00;100860.66;5072056;28;20052;-60
2023/01/07 11:32:20;;;;;;;1.90;1.02;;;;;;;11.18;100.00;100852.03;5071897;28;20032;-60
2023/01/07 11:34:55;;;;;;;2.42;1.20;;;;;;;11.11;100.00;100841.94;5067535;28;20048;-60
2023/01/07 11:37:38;;;;;;;2.17;1.00;;;;;;;11.12;100.00;100829.59;5069555;28;20057;-59
2023/01/07 11:40:21;;;;;;;2.50;1.33;;;;;;;11.10;100.00;100827.06;5069730;28;20060;-60
2023/01/07 11:42:53;;;;;;;1.90;1.08;;;;;;;11.15;100.00;100824.13;5067681;28;20044;-60